createdAt,value
2023-05-13T00:02:06.842Z,10.47
2023-05-13T00:05:10.134Z,10.44
2023-05-13T00:08:12.734Z,10.44
2023-05-13T00:11:15.343Z,10.42
2023-05-13T00:14:17.709Z,10.41
2023-05-13T00:17:20.964Z,10.44
2023-05-13T00:20:23.545Z,10.41
2023-05-13T00:23:26.409Z,10.36
2023-05-13T00:26:28.700Z,10.32
2023-05-13T00:29:31.552Z,10.26
2023-05-13T00:32:34.045Z,10.34
2023-05-13T00:35:36.651Z,10.23
2023-05-13T00:38:39.070Z,10.23
2023-05-13T00:41:41.697Z,10.18
2023-05-13T00:44:44.245Z,10.19
2023-05-13T00:47:47.574Z,10.16
2023-05-13T00:50:50.061Z,10.18
2023-05-13T00:53:53.071Z,10.17
2023-05-13T00:56:56.899Z,10.20
2023-05-13T00:59:59.901Z,10.16
2023-05-13T01:03:20.103Z,10.17
2023-05-13T01:06:32.719Z,10.14
2023-05-13T01:09:35.098Z,10.14
2023-05-13T01:12:40.064Z,10.10
2023-05-13T01:15:47.774Z,10.13
2023-05-13T01:18:54.971Z,10.15
2023-05-13T01:21:57.335Z,10.11
2023-05-13T01:25:00.162Z,10.13
2023-05-13T01:28:02.672Z,10.08
2023-05-13T01:31:06.281Z,10.06
2023-05-13T01:34:10.559Z,10.06
2023-05-13T01:37:13.739Z,10.06
2023-05-13T01:40:31.132Z,10.02
2023-05-13T01:43:35.608Z,10.06
2023-05-13T01:46:39.019Z,10.06
2023-05-13T01:49:41.988Z,10.12
2023-05-13T01:52:44.457Z,10.11
2023-05-13T01:55:47.470Z,10.01
2023-05-13T01:58:49.992Z,10.00
2023-05-13T02:01:52.699Z,9.99
2023-05-13T02:04:55.501Z,9.97
2023-05-13T02:07:58.386Z,9.91
2023-05-13T02:11:01.102Z,9.91
2023-05-13T02:14:03.680Z,9.94
2023-05-13T02:17:06.300Z,9.97
2023-05-13T02:20:09.132Z,10.06
2023-05-13T02:23:11.864Z,10.03
2023-05-13T02:26:14.173Z,10.03
2023-05-13T02:29:16.826Z,10.02
2023-05-13T02:32:19.225Z,10.06
2023-05-13T02:35:22.483Z,10.02
2023-05-13T02:38:24.936Z,9.98
2023-05-13T02:41:27.541Z,9.98
2023-05-13T02:44:30.112Z,9.91
2023-05-13T02:47:32.897Z,9.93
2023-05-13T02:50:36.842Z,9.90
2023-05-13T02:53:39.512Z,9.90
2023-05-13T02:56:42.708Z,9.98
2023-05-13T02:59:45.657Z,9.91
2023-05-13T03:02:48.007Z,9.91
2023-05-13T03:05:50.749Z,9.98
2023-05-13T03:08:54.119Z,9.94
2023-05-13T03:11:56.705Z,9.85
2023-05-13T03:14:59.278Z,9.84
2023-05-13T03:18:02.063Z,9.79
2023-05-13T03:21:04.596Z,9.75
2023-05-13T03:24:07.418Z,9.64
2023-05-13T03:27:10.439Z,9.61
2023-05-13T03:30:14.408Z,9.62
2023-05-13T03:33:17.517Z,9.64
2023-05-13T03:36:20.812Z,9.58
2023-05-13T03:39:23.287Z,9.54
2023-05-13T03:42:26.545Z,9.47
2023-05-13T03:45:29.576Z,9.43
2023-05-13T03:48:32.455Z,9.43
2023-05-13T03:51:35.594Z,9.44
2023-05-13T03:54:38.425Z,9.38
2023-05-13T03:57:41.845Z,9.40
2023-05-13T04:00:48.537Z,9.38
2023-05-13T04:03:51.105Z,9.43
2023-05-13T04:06:53.423Z,9.46
2023-05-13T04:09:55.951Z,9.49
2023-05-13T04:12:59.359Z,9.52
2023-05-13T04:16:03.347Z,9.48
2023-05-13T04:19:05.716Z,9.55
2023-05-13T04:22:08.316Z,9.50
2023-05-13T04:25:10.790Z,9.51
2023-05-13T04:28:13.419Z,9.51
2023-05-13T04:31:15.982Z,9.56
2023-05-13T04:34:18.682Z,9.58
2023-05-13T04:37:22.307Z,9.64
2023-05-13T04:40:26.530Z,9.67
2023-05-13T04:43:29.934Z,9.66
2023-05-13T04:46:33.217Z,9.66
2023-05-13T04:49:36.093Z,9.68
2023-05-13T04:52:39.232Z,9.75
2023-05-13T04:55:41.797Z,9.80
2023-05-13T04:58:44.342Z,9.76
2023-05-13T05:01:47.372Z,9.79
2023-05-13T05:04:50.291Z,9.85
2023-05-13T05:07:53.055Z,9.89
2023-05-13T05:10:56.101Z,9.88
2023-05-13T05:13:58.621Z,9.95
2023-05-13T05:17:01.419Z,9.99
2023-05-13T05:20:04.914Z,10.03
2023-05-13T05:23:09.001Z,10.04
2023-05-13T05:26:12.439Z,10.09
2023-05-13T05:29:15.806Z,10.16
2023-05-13T05:32:19.459Z,10.34
2023-05-13T05:35:22.215Z,10.25
2023-05-13T05:38:25.472Z,10.24
2023-05-13T05:41:28.382Z,10.25
2023-05-13T05:44:31.685Z,10.34
2023-05-13T05:47:34.407Z,10.36
2023-05-13T05:50:37.320Z,10.35
2023-05-13T05:53:42.194Z,10.35
2023-05-13T05:56:45.455Z,10.39
2023-05-13T05:59:48.074Z,10.35
2023-05-13T06:02:50.716Z,10.49
2023-05-13T06:05:54.718Z,10.42
2023-05-13T06:08:57.176Z,10.40
2023-05-13T06:11:59.811Z,10.46
2023-05-13T06:15:02.147Z,10.49
2023-05-13T06:18:05.783Z,10.51
2023-05-13T06:21:08.990Z,10.65
2023-05-13T06:24:11.650Z,10.60
2023-05-13T06:27:15.823Z,10.46
2023-05-13T06:30:19.061Z,10.68
2023-05-13T06:33:22.378Z,10.66
2023-05-13T06:36:25.022Z,10.70
2023-05-13T06:39:27.467Z,10.83
2023-05-13T06:42:30.933Z,10.95
2023-05-13T06:45:33.740Z,10.98
2023-05-13T06:48:36.777Z,10.96
2023-05-13T06:51:40.052Z,10.92
2023-05-13T06:54:42.665Z,10.92
2023-05-13T06:57:47.711Z,11.02
2023-05-13T07:00:50.328Z,11.02
2023-05-13T07:03:52.738Z,11.08
2023-05-13T07:06:55.520Z,11.02
2023-05-13T07:09:57.795Z,10.95
2023-05-13T07:13:01.053Z,11.04
2023-05-13T07:16:03.434Z,10.94
2023-05-13T07:19:06.062Z,11.05
2023-05-13T07:22:08.323Z,11.19
2023-05-13T07:25:10.994Z,11.22
2023-05-13T07:28:13.285Z,10.95
2023-05-13T07:31:15.963Z,10.96
2023-05-13T07:34:18.594Z,11.13
2023-05-13T07:37:21.182Z,11.08
2023-05-13T07:40:23.589Z,11.09
2023-05-13T07:43:27.943Z,11.15
2023-05-13T07:46:30.613Z,11.13
2023-05-13T07:49:33.201Z,11.06
2023-05-13T07:52:35.552Z,11.18
2023-05-13T07:55:38.284Z,11.09
2023-05-13T07:58:40.725Z,11.37
2023-05-13T08:01:43.312Z,11.33
2023-05-13T08:04:46.489Z,11.30
2023-05-13T08:07:48.763Z,11.10
2023-05-13T08:10:51.333Z,11.19
2023-05-13T08:13:53.700Z,11.09
2023-05-13T08:16:56.804Z,10.84
2023-05-13T08:20:00.138Z,11.05
2023-05-13T08:23:02.794Z,10.81
2023-05-13T08:26:05.091Z,10.97
2023-05-13T08:29:08.644Z,11.17
2023-05-13T08:32:11.142Z,11.07
2023-05-13T08:35:13.989Z,11.04
2023-05-13T08:38:16.542Z,11.31
2023-05-13T08:41:21.696Z,11.39
2023-05-13T08:44:28.763Z,11.16
2023-05-13T08:47:50.217Z,11.32
2023-05-13T08:50:52.700Z,11.31
2023-05-13T08:53:56.348Z,11.29
2023-05-13T08:56:58.744Z,11.49
2023-05-13T09:00:01.436Z,11.54
2023-05-13T09:03:04.238Z,11.52
2023-05-13T09:06:06.974Z,11.60
2023-05-13T09:09:09.835Z,11.83
2023-05-13T09:12:12.423Z,11.90
2023-05-13T09:15:15.859Z,11.78
2023-05-13T09:18:19.575Z,11.87
2023-05-13T09:21:23.172Z,11.91
2023-05-13T09:24:26.274Z,11.95
2023-05-13T09:27:38.440Z,11.93
2023-05-13T09:30:46.857Z,12.07
2023-05-13T09:33:52.535Z,12.42
2023-05-13T09:37:02.766Z,13.00
2023-05-13T09:40:05.530Z,13.40
2023-05-13T09:43:08.569Z,14.08
2023-05-13T09:46:10.940Z,14.68
2023-05-13T09:49:14.846Z,14.53
2023-05-13T09:52:17.260Z,14.14
2023-05-13T09:55:21.774Z,14.52
2023-05-13T09:58:24.659Z,14.73
2023-05-13T10:01:28.503Z,14.79
2023-05-13T10:04:31.277Z,14.51
2023-05-13T10:07:34.742Z,14.24
2023-05-13T10:10:37.904Z,14.75
2023-05-13T10:13:40.267Z,14.94
2023-05-13T10:16:43.177Z,14.41
2023-05-13T10:19:45.717Z,14.80
2023-05-13T10:22:49.438Z,15.24
2023-05-13T10:25:53.202Z,14.78
2023-05-13T10:28:57.625Z,14.89
2023-05-13T10:32:00.405Z,15.13
2023-05-13T10:35:14.045Z,14.75
2023-05-13T10:38:16.325Z,14.70
2023-05-13T10:41:25.031Z,14.74
2023-05-13T10:44:27.417Z,14.69
2023-05-13T10:47:33.725Z,14.37
2023-05-13T10:50:36.882Z,14.60
2023-05-13T10:53:49.503Z,14.48
2023-05-13T10:56:58.789Z,14.41
2023-05-13T11:00:17.499Z,14.54
2023-05-13T11:03:19.948Z,14.55
2023-05-13T11:06:24.017Z,14.79
2023-05-13T11:09:26.338Z,15.07
2023-05-13T11:12:28.982Z,14.91
2023-05-13T11:15:50.350Z,14.49
2023-05-13T11:18:53.211Z,14.39
2023-05-13T11:21:57.388Z,14.58
2023-05-13T11:25:03.078Z,14.77
2023-05-13T11:28:05.573Z,14.78
2023-05-13T11:31:17.641Z,14.33
2023-05-13T11:34:20.451Z,14.41
2023-05-13T11:37:23.130Z,14.07
2023-05-13T11:40:26.516Z,14.05
2023-05-13T11:43:29.373Z,14.05
2023-05-13T11:46:31.819Z,13.97
2023-05-13T11:49:34.527Z,13.86
2023-05-13T11:52:36.899Z,13.79
2023-05-13T11:55:39.478Z,13.75
2023-05-13T11:58:41.809Z,13.72
2023-05-13T12:01:44.865Z,13.92
2023-05-13T12:04:47.516Z,13.94
2023-05-13T12:07:50.217Z,13.77
2023-05-13T12:10:52.886Z,13.99
2023-05-13T12:13:55.453Z,13.96
2023-05-13T12:16:58.096Z,13.99
2023-05-13T12:20:07.383Z,14.08
2023-05-13T12:23:11.898Z,14.08
2023-05-13T12:26:14.205Z,14.12
2023-05-13T12:29:17.054Z,14.38
2023-05-13T12:32:19.535Z,14.61
2023-05-13T12:35:23.789Z,14.79
2023-05-13T12:38:26.419Z,14.65
2023-05-13T12:41:29.965Z,14.55
2023-05-13T12:44:32.346Z,14.61
2023-05-13T12:47:50.921Z,14.78
2023-05-13T12:50:53.419Z,14.39
2023-05-13T12:53:56.271Z,14.66
2023-05-13T12:56:58.664Z,14.65
2023-05-13T13:00:01.213Z,14.75
2023-05-13T13:03:03.597Z,14.64
2023-05-13T13:06:06.292Z,14.45
2023-05-13T13:09:08.581Z,14.41
2023-05-13T13:12:11.341Z,14.48
2023-05-13T13:15:13.672Z,14.87
2023-05-13T13:18:16.225Z,15.01
2023-05-13T13:21:18.579Z,14.99
2023-05-13T13:24:21.124Z,15.17
2023-05-13T13:27:23.451Z,15.20
2023-05-13T13:30:26.382Z,15.26
2023-05-13T13:33:28.666Z,15.22
2023-05-13T13:36:32.726Z,15.46
2023-05-13T13:39:35.046Z,15.67
2023-05-13T13:42:44.221Z,15.65
2023-05-13T13:45:47.216Z,15.47
2023-05-13T13:48:50.028Z,15.40
2023-05-13T13:51:53.180Z,15.38
2023-05-13T13:54:56.071Z,15.68
2023-05-13T13:57:58.474Z,15.59
2023-05-13T14:01:01.135Z,15.66
2023-05-13T14:04:10.642Z,15.68
2023-05-13T14:07:13.125Z,15.50
2023-05-13T14:10:15.936Z,15.48
2023-05-13T14:13:18.215Z,15.53
2023-05-13T14:16:20.979Z,15.49
2023-05-13T14:19:24.134Z,15.64
2023-05-13T14:22:26.757Z,15.48
2023-05-13T14:25:29.109Z,15.41
2023-05-13T14:28:31.753Z,15.16
2023-05-13T14:31:34.096Z,15.12
2023-05-13T14:34:36.762Z,14.93
2023-05-13T14:37:39.082Z,15.23
2023-05-13T14:40:41.631Z,15.41
2023-05-13T14:43:43.939Z,15.47
2023-05-13T14:46:46.586Z,15.36
2023-05-13T14:49:48.982Z,15.28
2023-05-13T14:52:51.551Z,15.32
2023-05-13T14:55:53.920Z,15.19
2023-05-13T14:58:56.762Z,15.28
2023-05-13T15:01:59.239Z,15.15
2023-05-13T15:05:01.875Z,14.94
2023-05-13T15:08:04.251Z,15.02
2023-05-13T15:11:07.018Z,14.99
2023-05-13T15:14:09.739Z,15.13
2023-05-13T15:17:12.884Z,14.84
2023-05-13T15:20:15.994Z,14.89
2023-05-13T15:23:18.649Z,14.82
2023-05-13T15:26:21.025Z,14.98
2023-05-13T15:29:23.623Z,15.07
2023-05-13T15:32:25.947Z,15.18
2023-05-13T15:35:28.576Z,14.91
2023-05-13T15:38:30.870Z,15.10
2023-05-13T15:41:33.470Z,15.16
2023-05-13T15:44:36.183Z,14.99
2023-05-13T15:47:38.902Z,14.87
2023-05-13T15:50:41.330Z,14.74
2023-05-13T15:53:43.960Z,14.66
2023-05-13T15:56:46.353Z,14.53
2023-05-13T15:59:48.962Z,14.66
2023-05-13T16:02:51.440Z,14.59
2023-05-13T16:05:54.222Z,14.52
2023-05-13T16:08:56.807Z,14.53
2023-05-13T16:11:59.643Z,14.35
2023-05-13T16:15:02.010Z,14.38
2023-05-13T16:18:04.734Z,14.27
2023-05-13T16:21:07.048Z,14.29
2023-05-13T16:24:09.740Z,14.23
2023-05-13T16:27:12.042Z,14.29
2023-05-13T16:30:14.710Z,14.23
2023-05-13T16:33:17.906Z,14.23
2023-05-13T16:36:20.604Z,14.22
2023-05-13T16:39:22.916Z,14.22
2023-05-13T16:42:25.566Z,14.13
2023-05-13T16:45:27.910Z,14.07
2023-05-13T16:48:30.649Z,14.11
2023-05-13T16:51:33.044Z,14.10
2023-05-13T16:54:35.593Z,14.13
2023-05-13T16:57:37.907Z,14.21
2023-05-13T17:00:40.764Z,14.17
2023-05-13T17:03:43.354Z,14.09
2023-05-13T17:06:46.089Z,14.05
2023-05-13T17:09:48.457Z,14.08
2023-05-13T17:12:51.073Z,13.94
2023-05-13T17:15:53.297Z,13.93
2023-05-13T17:18:57.715Z,13.82
2023-05-13T17:22:01.428Z,13.89
2023-05-13T17:25:04.237Z,13.91
2023-05-13T17:28:09.481Z,13.83
2023-05-13T17:31:12.122Z,13.75
2023-05-13T17:34:14.487Z,13.75
2023-05-13T17:37:17.116Z,13.70
2023-05-13T17:40:19.471Z,13.63
2023-05-13T17:43:22.201Z,13.60
2023-05-13T17:46:24.504Z,13.63
2023-05-13T17:49:27.169Z,13.56
2023-05-13T17:52:29.476Z,13.52
2023-05-13T17:55:32.159Z,13.57
2023-05-13T17:58:34.707Z,13.41
2023-05-13T18:01:37.408Z,13.35
2023-05-13T18:04:41.073Z,13.33
2023-05-13T18:07:43.519Z,13.33
2023-05-13T18:10:47.135Z,13.30
2023-05-13T18:13:49.441Z,13.20
2023-05-13T18:16:52.161Z,13.18
2023-05-13T18:19:54.477Z,13.07
2023-05-13T18:22:57.076Z,13.00
2023-05-13T18:25:59.462Z,12.96
2023-05-13T18:29:02.052Z,12.88
2023-05-13T18:32:04.983Z,13.00
2023-05-13T18:35:07.837Z,12.93
2023-05-13T18:38:10.222Z,12.88
2023-05-13T18:41:12.918Z,12.85
2023-05-13T18:44:15.333Z,12.85
2023-05-13T18:47:18.184Z,12.87
2023-05-13T18:50:21.467Z,12.77
2023-05-13T18:53:24.735Z,12.78
2023-05-13T18:56:27.546Z,12.77
2023-05-13T18:59:30.507Z,12.76
2023-05-13T19:02:33.411Z,12.74
2023-05-13T19:05:37.768Z,12.76
2023-05-13T19:08:41.761Z,12.78
2023-05-13T19:11:44.912Z,12.76
2023-05-13T19:14:47.768Z,12.77
2023-05-13T19:17:51.754Z,12.78
2023-05-13T19:20:55.336Z,12.74
2023-05-13T19:23:58.778Z,12.77
2023-05-13T19:27:01.910Z,12.73
2023-05-13T19:30:06.313Z,12.78
2023-05-13T19:33:09.780Z,12.78
2023-05-13T19:36:13.487Z,12.75
2023-05-13T19:39:16.577Z,12.71
2023-05-13T19:42:19.712Z,12.66
2023-05-13T19:45:23.006Z,12.71
2023-05-13T19:48:27.779Z,12.79
2023-05-13T19:51:32.605Z,12.82
2023-05-13T19:54:35.727Z,12.74
2023-05-13T19:57:39.637Z,12.65
2023-05-13T20:00:44.073Z,12.60
2023-05-13T20:03:47.478Z,12.53
2023-05-13T20:06:50.402Z,12.52
2023-05-13T20:09:54.123Z,12.35
2023-05-13T20:12:56.953Z,12.30
2023-05-13T20:16:00.058Z,12.19
2023-05-13T20:19:02.746Z,12.14
2023-05-13T20:22:05.808Z,12.19
2023-05-13T20:25:09.001Z,12.17
2023-05-13T20:28:12.141Z,12.19
2023-05-13T20:31:15.081Z,12.17
2023-05-13T20:34:18.950Z,12.22
2023-05-13T20:37:23.982Z,12.21
2023-05-13T20:40:29.621Z,12.25
2023-05-13T20:43:34.927Z,12.22
2023-05-13T20:46:38.139Z,12.20
2023-05-13T20:49:43.802Z,12.14
2023-05-13T20:52:46.514Z,12.03
2023-05-13T20:55:49.125Z,12.01
2023-05-13T20:58:52.707Z,11.97
2023-05-13T21:01:55.330Z,11.88
2023-05-13T21:04:58.054Z,11.81
2023-05-13T21:08:00.431Z,11.71
2023-05-13T21:11:03.620Z,11.68
2023-05-13T21:14:06.067Z,11.73
2023-05-13T21:17:10.286Z,11.59
2023-05-13T21:20:12.868Z,11.49
2023-05-13T21:23:15.937Z,11.55
2023-05-13T21:26:18.328Z,11.45
2023-05-13T21:29:20.991Z,11.38
2023-05-13T21:32:23.626Z,11.32
2023-05-13T21:35:26.285Z,11.30
2023-05-13T21:38:28.705Z,11.26
2023-05-13T21:41:31.289Z,11.21
2023-05-13T21:44:33.621Z,11.18
2023-05-13T21:47:36.440Z,11.11
2023-05-13T21:50:38.754Z,11.05
2023-05-13T21:53:41.435Z,11.15
2023-05-13T21:56:43.808Z,11.15
2023-05-13T21:59:46.330Z,11.10
2023-05-13T22:02:50.085Z,11.07
2023-05-13T22:05:52.847Z,11.07
2023-05-13T22:08:55.335Z,11.04
2023-05-13T22:11:57.921Z,11.02
2023-05-13T22:15:00.213Z,10.91
2023-05-13T22:18:03.073Z,10.96
2023-05-13T22:21:05.807Z,10.83
2023-05-13T22:24:08.438Z,10.71
2023-05-13T22:27:10.738Z,10.69
2023-05-13T22:30:13.424Z,10.65
2023-05-13T22:33:16.098Z,10.59
2023-05-13T22:36:18.711Z,10.60
2023-05-13T22:39:21.238Z,10.54
2023-05-13T22:42:23.796Z,10.50
2023-05-13T22:45:26.083Z,10.47
2023-05-13T22:48:28.672Z,10.54
2023-05-13T22:51:31.550Z,10.52
2023-05-13T22:54:34.198Z,10.54
2023-05-13T22:57:36.537Z,10.56
2023-05-13T23:00:39.184Z,10.58
2023-05-13T23:03:41.560Z,10.58
2023-05-13T23:06:44.087Z,10.58
2023-05-13T23:09:46.384Z,10.65
2023-05-13T23:12:48.967Z,10.78
2023-05-13T23:15:51.373Z,10.70
2023-05-13T23:18:55.136Z,10.71
2023-05-13T23:21:57.516Z,10.66
2023-05-13T23:25:00.121Z,10.67
2023-05-13T23:28:02.530Z,10.62
2023-05-13T23:31:05.227Z,10.58
2023-05-13T23:34:08.216Z,10.64
2023-05-13T23:37:11.460Z,10.68
2023-05-13T23:40:13.913Z,10.65
2023-05-13T23:43:16.603Z,10.65
2023-05-13T23:46:18.940Z,10.67
2023-05-13T23:49:21.734Z,10.70
2023-05-13T23:52:24.087Z,10.70
2023-05-13T23:55:26.661Z,10.68
2023-05-13T23:58:29.001Z,10.65
